Topeka, KS (66611)

01:00 PM CST die 22o February, anno 2018 (GMT -0600)
Knollwood | | Change Station
Active Advisory: Winter Weather Advisory

Elev 978 ft 39.02 °N, 95.70 °W | Updated 7 seconds ago

Aequaliter Nubila
Aequaliter Nubila
30.3 °F
Feels Like 30 °F
N
0.0
Ventus Variabilis Ventus from Inter Austrum et Eurum

Hodie
High -- | Low -- °F
--% Chance of Precip.
Yesterday
High -- | Low -- °F
Precip. -- in
Pressio 30.34 in
Visibilitas 4.0 milia passuum
Clouds Aequaliter Nubila 400 ft
Frigus Venti 30 °F
Frigus in quo Ros apparet 29 °F
Umor 96%
Rainfall 0.00 in
Snow Depth Not available.
7:05 AM 6:08 PM
Waxing Crescent, 44% visible
METAR KFOE 221853Z 12007KT 4SM BR OVC004 M01/M02 A3030 RMK AO2 SLP272 T10061017
Pressio 30.34 in
Visibilitas 4.0 milia passuum
Clouds Aequaliter Nubila 400 ft
Frigus Venti 30 °F
Frigus in quo Ros apparet 29 °F
Umor 96%
Rainfall 0.00 in
Snow Depth Not available.
7:05 AM 6:08 PM
Waxing Crescent, 44% visible
METAR KFOE 221853Z 12007KT 4SM BR OVC004 M01/M02 A3030 RMK AO2 SLP272 T10061017

Get Your Daily Forecast Email!

Thanks for signing up!

Be on the lookout for a verification email in your inbox.

You'll start receiving severe weather alerts in your inbox..

×

10-Day Weather Forecast

Almanac

Astronomy

Feb. 22, 2018 Rise Set
Actual Time
Civil Twilight
Nautical Twilight
Astronomical Twilight
Moon
Length Of Visible Light
Length of Day
Tomorrow will be .
, % of the Moon is Illuminated

Today's Extremes

State Highs State Lows

Community

WunderPhotos

Category 6

Welcome to Category 6. This is the collective home for Weather Underground's featured writeups by Dr. Jeff Masters (right), Bob Henson (left), Chris Burt, and other regular contributors.

Nearby

Air Quality

  Air Quality AQ Index Pollutant
Not available.

Snow Depth

Station Depth Elevation

Earthquake Activity

City Distance Mag. Time & Date
Minimum magnitude displayed is 2.5.

Coastal Water Temperatures

Locus Calor

Stations

Nearby Weather Stations

Station Location Temp Frigus Venti Frigus in quo Ros apparet Umor Ventus Precip. Elev Renovata Type
                   

Watches & Warnings

Winter Weather Advisory
Issued: 11:08 AM CST Feb. 22, 2018 – National Weather Service

... Winter Weather Advisory remains in effect until 6 PM CST this
evening...

* what... freezing rain and freezing drizzle. Additional ice
accumulations of around one tenth of an inch are expected.

* Where... portions of central, east central and northeast Kansas.

* When... until 6 PM CST this evening.

* Additional details... the ice will result in difficult travel
conditions, including during the evening commute.

Precautionary/preparedness actions...

A Winter Weather Advisory means that periods of freezing rain
will cause travel difficulties. Be prepared for slippery roads.
Slow down and use caution while driving. The latest Road
conditions for the state you are calling from can be obtained by
calling 5 1 1.